Time;durP1;ratioP1;P1;durP2;ratioP2;P2;SDS_P1;SDS_P2;PMS_P1;PMS_P2;Temp;Humidity;BMP_temperature;BMP_pressure;BME280_temperature;BME280_humidity;BME280_pressure;Samples;Min_cycle;Max_cycle;Signal;HPM_P1;HPM_P2
2022/02/19 00:02:09;;;;;;;;;;;;;;;1.00;72.85;98618.16;5073556;28;19975;-69
2022/02/19 00:04:34;;;;;;;;;;;;;;;1.02;73.08;98631.94;5073068;28;20414;-68
2022/02/19 00:07:00;;;;;;;;;;;;;;;0.95;72.83;98628.28;5073132;28;19916;-68
2022/02/19 00:09:25;;;;;;;;;;;;;;;0.98;73.31;98631.44;5073281;28;19920;-69
2022/02/19 00:11:51;;;;;;;;;;;;;;;1.00;73.37;98633.91;5040786;28;19968;-69
2022/02/19 00:14:16;;;;;;;;;;;;;;;1.00;72.63;98637.34;5057606;28;19916;-68
2022/02/19 00:16:42;;;;;;;;;;;;;;;1.01;72.80;98631.13;5075018;28;19920;-71
2022/02/19 00:19:07;;;;;;;;;;;;;;;1.01;72.64;98636.34;5073228;28;19962;-68
2022/02/19 00:21:32;;;;;;;;;;;;;;;1.05;72.75;98631.63;5072697;28;20063;-70
2022/02/19 00:23:58;;;;;;;;;;;;;;;1.06;72.95;98636.72;5072961;28;19967;-69
2022/02/19 00:26:24;;;;;;;;;;;;;;;1.10;72.87;98645.09;5079406;28;19962;-66
2022/02/19 00:28:50;;;;;;;;;;;;;;;1.12;73.36;98637.91;5060734;28;20011;-70
2022/02/19 00:31:15;;;;;;;;;;;;;;;1.10;72.43;98631.97;5054937;28;20366;-68
2022/02/19 00:33:40;;;;;;;;;;;;;;;1.06;72.85;98644.59;5072866;28;20299;-70
2022/02/19 00:36:06;;;;;;;;;;;;;;;1.04;72.77;98643.09;5072771;28;19916;-70
2022/02/19 00:38:31;;;;;;;;;;;;;;;1.01;72.50;98641.59;5072623;28;19981;-72
2022/02/19 00:40:59;;;;;;;;;;;;;;;1.04;72.66;98635.22;5072925;28;19916;-75
2022/02/19 00:43:24;;;;;;;;;;;;;;;1.04;71.89;98640.47;5072732;28;19917;-71
2022/02/19 00:45:50;;;;;;;;;;;;;;;1.01;71.80;98635.53;5072831;28;19920;-72
2022/02/19 00:48:15;;;;;;;;;;;;;;;1.01;72.55;98640.78;5072686;28;20330;-70
2022/02/19 00:50:40;;;;;;;;;;;;;;;1.02;72.18;98632.75;5054452;28;20415;-72
2022/02/19 00:53:06;;;;;;;;;;;;;;;1.05;72.27;98631.63;5072564;28;19923;-71
2022/02/19 00:55:31;;;;;;;;;;;;;;;1.06;72.19;98628.03;5072629;28;20423;-72
2022/02/19 00:57:57;;;;;;;;;;;;;;;1.05;72.51;98621.97;5073921;28;19927;-73
2022/02/19 01:00:23;;;;;;;;;;;;;;;1.01;72.47;98618.00;5072582;28;20295;-72
2022/02/19 01:02:48;;;;;;;;;;;;;;;1.05;72.54;98621.16;5054641;28;20403;-72
2022/02/19 01:05:14;;;;;;;;;;;;;;;1.04;72.73;98614.25;5072536;28;20371;-72
2022/02/19 01:07:39;;;;;;;;;;;;;;;0.94;73.27;98622.22;5072561;28;19967;-71
2022/02/19 01:10:07;;;;;;;;;;;;;;;0.95;73.23;98615.19;5072374;28;20050;-70
2022/02/19 01:12:32;;;;;;;;;;;;;;;0.97;73.01;98608.00;5072614;28;19942;-73
2022/02/19 01:14:57;;;;;;;;;;;;;;;0.96;73.01;98611.59;5075311;28;20396;-73
2022/02/19 01:17:23;;;;;;;;;;;;;;;0.94;72.92;98611.75;5072379;28;20295;-71
2022/02/19 01:19:48;;;;;;;;;;;;;;;0.96;73.20;98608.97;5072481;28;19978;-72
2022/02/19 01:22:13;;;;;;;;;;;;;;;1.01;73.25;98606.72;5072481;28;19923;-71
2022/02/19 01:24:39;;;;;;;;;;;;;;;1.01;73.14;98604.09;5055185;28;19920;-71
2022/02/19 01:27:04;;;;;;;;;;;;;;;1.04;73.15;98599.34;5054977;28;19916;-73
2022/02/19 01:29:30;;;;;;;;;;;;;;;1.08;73.33;98595.44;5073273;28;19916;-73
2022/02/19 01:31:55;;;;;;;;;;;;;;;1.09;73.35;98598.88;5073258;28;19974;-73
2022/02/19 01:34:23;;;;;;;;;;;;;;;1.11;73.51;98596.94;5079386;28;19920;-71
2022/02/19 01:36:52;;;;;;;;;;;;;;;1.12;73.50;98590.72;5081367;28;19922;-71
2022/02/19 01:39:29;;;;;;;;;;;;;;;1.08;73.70;98592.81;5068191;28;19917;-71
2022/02/19 01:42:07;;;;;;;;;;;;;;;1.10;73.93;98590.03;5083923;28;19916;-72
2022/02/19 01:44:45;;;;;;;;;;;;;;;1.11;73.97;98594.31;5085497;28;20054;-71
2022/02/19 01:47:15;;;;;;;;;;;;;;;1.13;74.05;98594.97;5078175;28;20030;-70
2022/02/19 01:50:13;;;;;;;;;;;;;;;1.21;73.92;98589.78;5091147;28;19916;-71
2022/02/19 01:52:52;;;;;;;;;;;;;;;1.21;73.90;98585.38;5012401;28;19928;-72
2022/02/19 01:55:18;;;;;;;;;;;;;;;1.21;73.96;98589.78;5056546;28;19916;-69
2022/02/19 01:57:47;;;;;;;;;;;;;;;1.27;74.00;98580.47;5054888;28;19931;-72
2022/02/19 02:00:16;;;;;;;;;;;;;;;1.28;74.34;98577.69;5055956;28;19961;-71
2022/02/19 02:03:15;;;;;;;;;;;;;;;1.30;74.10;98577.53;5056813;28;19951;-72
2022/02/19 02:05:58;;;;;;;;;;;;;;;1.30;74.25;98580.16;5059556;28;20368;-72
2022/02/19 02:11:58;;;;;;;;;;;;;;;1.21;74.08;98574.06;4982587;28;19995;-69
2022/02/19 02:14:55;;;;;;;;;;;;;;;1.25;74.19;98570.16;4980895;28;20052;-75
2022/02/19 02:17:30;;;;;;;;;;;;;;;1.26;74.93;98566.53;4998149;28;20432;-73
2022/02/19 02:19:55;;;;;;;;;;;;;;;1.19;75.63;98566.34;4997164;28;19918;-69
2022/02/19 02:22:39;;;;;;;;;;;;;;;1.16;75.57;98565.84;4995916;28;19918;-74
2022/02/19 02:25:38;;;;;;;;;;;;;;;1.18;75.75;98569.13;4999547;28;19996;-74
2022/02/19 02:28:09;;;;;;;;;;;;;;;1.16;75.83;98571.09;4982118;28;20408;-71
2022/02/19 02:30:55;;;;;;;;;;;;;;;1.20;75.51;98561.94;5005110;28;19925;-71
2022/02/19 02:33:42;;;;;;;;;;;;;;;1.24;75.36;98563.25;5002385;28;19930;-74
2022/02/19 02:36:08;;;;;;;;;;;;;;;1.22;75.45;98559.97;5022147;28;19939;-69
2022/02/19 02:38:33;;;;;;;;;;;;;;;1.23;75.31;98559.00;5008989;28;20008;-69
2022/02/19 02:40:59;;;;;;;;;;;;;;;1.20;75.47;98556.69;5076331;28;19955;-72
2022/02/19 02:43:28;;;;;;;;;;;;;;;1.22;75.52;98539.81;5079247;28;19916;-75
2022/02/19 02:53:15;;;;;;;;;;;;;;;1.37;75.41;98526.91;4978006;28;20318;-73
2022/02/19 02:55:40;;;;;;;;;;;;;;;1.32;75.83;98517.88;4998696;28;19971;-71
2022/02/19 02:58:37;;;;;;;;;;;;;;;1.35;75.74;98521.00;5020504;28;19901;-73
2022/02/19 03:01:07;;;;;;;;;;;;;;;1.35;75.62;98507.06;5010552;28;20308;-72
2022/02/19 03:03:32;;;;;;;;;;;;;;;1.34;75.68;98503.63;5012898;28;19953;-72
2022/02/19 03:05:58;;;;;;;;;;;;;;;1.29;76.05;98500.66;5037401;28;20481;-73
2022/02/19 03:08:23;;;;;;;;;;;;;;;1.25;76.59;98499.34;5056480;28;20272;-72
2022/02/19 03:10:49;;;;;;;;;;;;;;;1.19;76.60;98495.56;5056324;28;20395;-71
2022/02/19 03:13:15;;;;;;;;;;;;;;;1.17;77.08;98496.69;5078572;28;19900;-76
2022/02/19 03:15:41;;;;;;;;;;;;;;;1.23;76.81;98494.25;5080233;28;19916;-72
2022/02/19 03:18:06;;;;;;;;;;;;;;;1.23;76.83;98488.19;5074527;28;19939;-73
2022/02/19 03:20:49;;;;;;;;;;;;;;;1.10;77.47;98488.63;5057339;28;19920;-73
2022/02/19 03:26:58;;;;;;;;;;;;;;;1.02;77.56;98487.78;4975552;28;19985;-74
2022/02/19 03:29:30;;;;;;;;;;;;;;;1.03;78.23;98486.81;4979327;28;19964;-72
2022/02/19 03:31:56;;;;;;;;;;;;;;;1.01;78.18;98484.34;5012184;28;19921;-71
2022/02/19 03:34:50;;;;;;;;;;;;;;;1.05;78.07;98490.09;5038388;28;19993;-71
2022/02/19 03:37:57;;;;;;;;;;;;;;;1.11;77.94;98478.97;5016292;28;20407;-72
2022/02/19 03:40:31;;;;;;;;;;;;;;;1.10;78.12;98475.53;5002521;28;19960;-70
2022/02/19 03:43:18;;;;;;;;;;;;;;;1.10;78.04;98472.06;5063334;28;20020;-69
2022/02/19 03:45:47;;;;;;;;;;;;;;;1.11;78.04;98458.00;5084487;28;19921;-70
2022/02/19 03:48:13;;;;;;;;;;;;;;;1.14;77.69;98468.16;5073356;28;19920;-72
2022/02/19 03:50:38;;;;;;;;;;;;;;;1.16;77.89;98455.75;5055425;28;19916;-68
2022/02/19 03:53:04;;;;;;;;;;;;;;;1.15;78.25;98459.31;5073654;28;19916;-69
2022/02/19 03:55:30;;;;;;;;;;;;;;;1.14;78.02;98457.66;5073490;28;19916;-70
2022/02/19 03:57:55;;;;;;;;;;;;;;;1.09;78.02;98459.94;5073777;28;20371;-71
2022/02/19 04:00:20;;;;;;;;;;;;;;;1.12;78.44;98454.38;5073901;28;19924;-68
2022/02/19 04:02:47;;;;;;;;;;;;;;;1.14;78.28;98448.00;5073565;28;19927;-70
2022/02/19 04:05:15;;;;;;;;;;;;;;;1.20;77.96;98451.81;5074217;28;20189;-72
2022/02/19 04:07:41;;;;;;;;;;;;;;;1.17;77.96;98442.47;5075462;28;19916;-69
2022/02/19 04:10:10;;;;;;;;;;;;;;;1.14;77.85;98441.94;5060376;28;19900;-70
2022/02/19 04:12:35;;;;;;;;;;;;;;;1.07;78.42;98440.94;5075024;28;19943;-71
2022/02/19 04:15:33;;;;;;;;;;;;;;;1.08;78.33;98434.72;5075145;28;20379;-73
2022/02/19 04:18:01;;;;;;;;;;;;;;;1.05;78.35;98433.25;5077407;28;19923;-67
2022/02/19 04:20:27;;;;;;;;;;;;;;;1.00;78.60;98430.28;5073611;28;20291;-69
2022/02/19 04:22:53;;;;;;;;;;;;;;;1.02;78.65;98427.50;5072566;28;20420;-73
2022/02/19 04:25:18;;;;;;;;;;;;;;;1.03;78.57;98423.91;5054543;28;19916;-70
2022/02/19 04:27:44;;;;;;;;;;;;;;;0.99;78.80;98418.16;5072441;28;19916;-69
2022/02/19 04:30:10;;;;;;;;;;;;;;;0.95;78.85;98426.50;5054192;28;20268;-72
2022/02/19 04:35:23;;;;;;;;;;;;;;;0.98;79.07;98408.66;5154592;22;19924;-72
2022/02/19 04:38:05;;;;;;;;;;;;;;;1.01;78.75;98415.38;5166378;22;19926;-72
2022/02/19 04:40:30;;;;;;;;;;;;;;;1.07;78.53;98418.16;5097535;28;19983;-70
2022/02/19 04:42:56;;;;;;;;;;;;;;;1.12;78.78;98417.69;5102731;28;19954;-70
2022/02/19 04:45:29;;;;;;;;;;;;;;;1.15;78.46;98412.13;5102571;28;20381;-71
2022/02/19 04:47:57;;;;;;;;;;;;;;;1.15;78.56;98420.00;5082034;28;19923;-72
2022/02/19 04:50:26;;;;;;;;;;;;;;;1.14;78.39;98427.03;5082850;28;20048;-71
2022/02/19 04:52:51;;;;;;;;;;;;;;;1.11;78.44;98416.88;5100616;28;19969;-69
2022/02/19 04:55:17;;;;;;;;;;;;;;;1.17;78.26;98410.19;5082683;28;19916;-72
2022/02/19 04:57:45;;;;;;;;;;;;;;;1.17;78.42;98411.00;5102099;28;19923;-70
2022/02/19 05:00:11;;;;;;;;;;;;;;;1.16;78.28;98411.16;5082428;28;19923;-70
2022/02/19 05:02:37;;;;;;;;;;;;;;;1.16;78.34;98419.03;5083465;28;19941;-70
2022/02/19 05:05:03;;;;;;;;;;;;;;;1.13;78.78;98409.66;5093950;28;19972;-69
2022/02/19 05:07:29;;;;;;;;;;;;;;;1.11;78.61;98410.81;5097357;28;20380;-70
2022/02/19 05:09:54;;;;;;;;;;;;;;;1.11;78.70;98403.75;5093077;28;19916;-71
2022/02/19 05:12:19;;;;;;;;;;;;;;;1.12;78.75;98404.56;5094301;28;19955;-70
2022/02/19 05:14:45;;;;;;;;;;;;;;;1.15;78.42;98399.00;5094521;28;19923;-70
2022/02/19 05:17:10;;;;;;;;;;;;;;;1.13;78.39;98403.59;5094512;28;19987;-70
2022/02/19 05:19:36;;;;;;;;;;;;;;;1.16;78.44;98392.81;5097343;28;19994;-70
2022/02/19 05:22:01;;;;;;;;;;;;;;;1.15;78.66;98391.97;5097683;28;20351;-70
2022/02/19 05:24:26;;;;;;;;;;;;;;;1.16;78.49;98388.41;5100902;28;19916;-71
2022/02/19 05:26:52;;;;;;;;;;;;;;;1.17;78.33;98383.97;5099696;28;20013;-73
2022/02/19 05:29:17;;;;;;;;;;;;;;;1.21;78.13;98390.53;5080836;28;19965;-72
2022/02/19 05:31:42;;;;;;;;;;;;;;;1.26;78.08;98388.25;5094904;28;20426;-70
2022/02/19 05:34:08;;;;;;;;;;;;;;;1.27;77.91;98392.50;5097676;28;19923;-73
2022/02/19 05:36:33;;;;;;;;;;;;;;;1.24;77.84;98379.72;5086326;28;19916;-71
2022/02/19 05:39:02;;;;;;;;;;;;;;;1.24;77.99;98377.91;5122756;28;20432;-69
2022/02/19 05:41:28;;;;;;;;;;;;;;;1.26;77.88;98362.03;5123804;28;19919;-69
2022/02/19 05:43:53;;;;;;;;;;;;;;;1.24;77.94;98356.13;5106006;28;19916;-73
2022/02/19 05:46:19;;;;;;;;;;;;;;;1.21;78.38;98359.88;5116819;28;20023;-74
2022/02/19 05:48:44;;;;;;;;;;;;;;;1.17;78.41;98357.75;5100891;28;19915;-71
2022/02/19 05:51:09;;;;;;;;;;;;;;;1.20;78.36;98352.19;5118197;28;19923;-69
2022/02/19 05:53:35;;;;;;;;;;;;;;;1.24;78.20;98353.50;5118514;28;19922;-70
2022/02/19 05:56:01;;;;;;;;;;;;;;;1.26;78.02;98348.91;5118143;28;19945;-70
2022/02/19 05:58:26;;;;;;;;;;;;;;;1.29;77.67;98350.38;5100605;28;19919;-69
2022/02/19 06:00:52;;;;;;;;;;;;;;;1.31;77.66;98351.88;5098739;28;20433;-69
2022/02/19 06:03:17;;;;;;;;;;;;;;;1.32;77.93;98348.25;5098393;28;19916;-70
2022/02/19 06:05:44;;;;;;;;;;;;;;;1.34;77.27;98338.41;5097767;28;19930;-71
2022/02/19 06:08:09;;;;;;;;;;;;;;;1.34;77.47;98342.84;5097592;28;19919;-69
2022/02/19 06:10:34;;;;;;;;;;;;;;;1.35;77.40;98337.44;5097834;28;20011;-70
2022/02/19 06:13:20;;;;;;;;;;;;;;;1.36;78.07;98317.28;5080489;28;19927;-69
2022/02/19 06:15:46;;;;;;;;;;;;;;;1.38;77.71;98323.19;5066470;28;20023;-70
2022/02/19 06:18:42;;;;;;;;;;;;;;;1.37;76.93;98321.53;5079649;28;20382;-71
2022/02/19 06:21:13;;;;;;;;;;;;;;;1.41;77.12;98313.19;5072474;28;20454;-68
2022/02/19 06:23:39;;;;;;;;;;;;;;;1.41;77.20;98313.19;5098425;28;20369;-73
2022/02/19 06:26:04;;;;;;;;;;;;;;;1.42;77.20;98304.31;5096662;28;19973;-74
2022/02/19 06:28:30;;;;;;;;;;;;;;;1.48;77.02;98303.69;5078233;28;19971;-74
2022/02/19 06:30:55;;;;;;;;;;;;;;;1.46;76.76;98289.09;5095529;28;19920;-73
2022/02/19 06:33:28;;;;;;;;;;;;;;;1.43;76.92;98290.22;5078059;28;20390;-73
2022/02/19 06:35:53;;;;;;;;;;;;;;;1.41;76.88;98294.81;5096676;28;19923;-71
2022/02/19 06:38:22;;;;;;;;;;;;;;;1.43;77.13;98279.72;5095949;28;20358;-72
2022/02/19 06:40:53;;;;;;;;;;;;;;;1.44;77.13;98270.88;5097019;28;19927;-75
2022/02/19 06:43:22;;;;;;;;;;;;;;;1.52;76.50;98267.44;5096165;28;19927;-69
2022/02/19 06:45:47;;;;;;;;;;;;;;;1.58;76.32;98261.53;5095286;28;19949;-74
2022/02/19 06:48:13;;;;;;;;;;;;;;;1.62;76.39;98251.53;5076619;28;19955;-74
2022/02/19 06:50:38;;;;;;;;;;;;;;;1.55;75.92;98256.63;5095781;28;20311;-72
2022/02/19 06:53:04;;;;;;;;;;;;;;;1.62;76.33;98246.28;5094494;28;19916;-71
2022/02/19 06:55:29;;;;;;;;;;;;;;;1.67;75.76;98241.34;5076950;28;19926;-72
2022/02/19 06:57:54;;;;;;;;;;;;;;;1.67;75.89;98230.84;5094490;28;19923;-75
2022/02/19 07:00:23;;;;;;;;;;;;;;;1.63;76.14;98232.16;5094970;28;19963;-76
2022/02/19 07:02:53;;;;;;;;;;;;;;;1.62;76.11;98230.53;5068693;28;19986;-71
2022/02/19 07:05:18;;;;;;;;;;;;;;;1.62;76.22;98225.28;5090335;28;19916;-71
2022/02/19 07:08:09;;;;;;;;;;;;;;;1.60;76.32;98222.00;5075021;28;20381;-72
2022/02/19 07:10:34;;;;;;;;;;;;;;;1.58;76.31;98213.50;5078997;28;20010;-70
2022/02/19 07:13:03;;;;;;;;;;;;;;;1.61;75.76;98215.78;5078410;28;20397;-72
2022/02/19 07:15:29;;;;;;;;;;;;;;;1.63;75.89;98216.44;5078044;28;19919;-72
2022/02/19 07:17:55;;;;;;;;;;;;;;;1.63;75.90;98203.31;5079101;28;19916;-74
2022/02/19 07:20:21;;;;;;;;;;;;;;;1.67;75.58;98196.75;5095973;28;20437;-72
2022/02/19 07:22:47;;;;;;;;;;;;;;;1.69;75.89;98184.28;5097988;28;19916;-76
2022/02/19 07:25:13;;;;;;;;;;;;;;;1.71;75.24;98195.41;5098250;28;19927;-71
2022/02/19 07:27:43;;;;;;;;;;;;;;;1.72;75.39;98178.69;5078569;28;19923;-71
2022/02/19 07:30:10;;;;;;;;;;;;;;;1.69;74.88;98179.03;5059935;28;19930;-71
2022/02/19 07:32:39;;;;;;;;;;;;;;;1.66;75.36;98176.75;5095903;28;19915;-75
2022/02/19 07:35:05;;;;;;;;;;;;;;;1.54;75.44;98160.56;5079751;28;19944;-74
2022/02/19 07:37:32;;;;;;;;;;;;;;;1.57;75.57;98154.97;5071833;28;19931;-71
2022/02/19 07:39:57;;;;;;;;;;;;;;;1.64;75.89;98155.09;5084861;28;20437;-72
2022/02/19 07:42:26;;;;;;;;;;;;;;;1.68;75.66;98161.66;5089345;28;19915;-71
2022/02/19 07:44:55;;;;;;;;;;;;;;;1.62;75.53;98151.84;5089667;28;19985;-74
2022/02/19 07:47:25;;;;;;;;;;;;;;;1.69;74.98;98164.09;5085991;28;20006;-70
2022/02/19 07:58:18;;;;;;;;;;;;;;;1.71;74.87;98138.50;5082304;28;19916;-74
2022/02/19 08:00:44;;;;;;;;;;;;;;;1.60;75.03;98117.09;5079583;28;19923;-72
2022/02/19 08:03:09;;;;;;;;;;;;;;;1.60;75.20;98122.34;5067505;28;19939;-71
2022/02/19 08:05:38;;;;;;;;;;;;;;;1.66;75.49;98111.16;5064424;28;20347;-70
2022/02/19 08:08:04;;;;;;;;;;;;;;;1.74;74.95;98114.56;5085844;28;19920;-74
2022/02/19 08:10:32;;;;;;;;;;;;;;;1.83;74.75;98103.03;5088352;28;19973;-75
2022/02/19 08:13:04;;;;;;;;;;;;;;;1.88;74.17;98113.03;5093128;28;20337;-75
2022/02/19 08:15:30;;;;;;;;;;;;;;;1.84;74.22;98104.69;5092592;28;19962;-69
2022/02/19 08:17:55;;;;;;;;;;;;;;;1.83;74.13;98104.84;5093363;28;19915;-69
2022/02/19 08:20:20;;;;;;;;;;;;;;;1.83;74.28;98089.09;5093530;28;20015;-72
2022/02/19 08:22:46;;;;;;;;;;;;;;;1.91;74.29;98094.31;5093459;28;19923;-71
2022/02/19 08:25:14;;;;;;;;;;;;;;;1.93;73.72;98091.50;5093247;28;19916;-72
2022/02/19 08:27:40;;;;;;;;;;;;;;;1.95;74.04;98082.47;5092696;28;19973;-70
2022/02/19 08:30:06;;;;;;;;;;;;;;;1.95;73.98;98085.09;5093548;28;20333;-70
2022/02/19 08:32:32;;;;;;;;;;;;;;;1.92;74.36;98079.38;5093355;28;20396;-68
2022/02/19 08:34:58;;;;;;;;;;;;;;;1.90;74.39;98076.09;5083949;28;20022;-67
2022/02/19 08:37:24;;;;;;;;;;;;;;;1.89;74.46;98070.03;5080472;28;20501;-67
2022/02/19 08:39:50;;;;;;;;;;;;;;;1.94;74.61;98067.72;5083433;28;20733;-65
2022/02/19 08:42:15;;;;;;;;;;;;;;;2.07;74.44;98064.53;5082915;28;19923;-67
2022/02/19 08:44:40;;;;;;;;;;;;;;;2.18;74.58;98062.31;5083723;28;19937;-72
2022/02/19 08:47:06;;;;;;;;;;;;;;;2.27;74.33;98056.97;5064498;28;19923;-71
2022/02/19 08:49:32;;;;;;;;;;;;;;;2.31;74.35;98058.25;5053850;28;19916;-72
2022/02/19 08:51:58;;;;;;;;;;;;;;;2.23;74.27;98050.44;5076134;28;19959;-73
2022/02/19 08:54:23;;;;;;;;;;;;;;;2.10;75.42;98053.66;5074642;28;19923;-73
2022/02/19 08:56:50;;;;;;;;;;;;;;;1.82;76.26;98048.94;5075224;28;19950;-71
2022/02/19 08:59:16;;;;;;;;;;;;;;;1.72;77.14;98042.25;5093866;28;19922;-70
2022/02/19 09:01:41;;;;;;;;;;;;;;;1.77;77.33;98043.38;5073396;28;19916;-68
2022/02/19 09:04:09;;;;;;;;;;;;;;;1.83;77.58;98034.00;5066080;28;20378;-71
2022/02/19 09:06:36;;;;;;;;;;;;;;;1.90;77.31;98028.88;5075567;28;19916;-73
2022/02/19 09:09:05;;;;;;;;;;;;;;;1.93;76.91;98018.84;5072473;28;19943;-74
2022/02/19 09:11:30;;;;;;;;;;;;;;;1.94;77.17;98022.28;5072185;28;19928;-70
2022/02/19 09:13:56;;;;;;;;;;;;;;;1.97;76.96;98014.84;5090629;28;19916;-72
2022/02/19 09:16:21;;;;;;;;;;;;;;;2.13;77.31;97999.00;5092584;28;20397;-70
2022/02/19 09:18:47;;;;;;;;;;;;;;;2.11;76.56;97992.28;5092271;28;19916;-65
2022/02/19 09:21:12;;;;;;;;;;;;;;;2.11;76.40;97993.13;5091779;28;19923;-70
2022/02/19 09:23:38;;;;;;;;;;;;;;;2.02;76.06;97993.34;5073415;28;20025;-65
2022/02/19 09:26:03;;;;;;;;;;;;;;;2.05;76.08;97985.94;5092327;28;19916;-69
2022/02/19 09:28:29;;;;;;;;;;;;;;;2.13;75.81;97974.56;5092321;28;19916;-70
2022/02/19 09:30:54;;;;;;;;;;;;;;;2.29;76.01;97976.22;5074115;28;20329;-69
2022/02/19 09:33:20;;;;;;;;;;;;;;;2.39;75.13;97971.53;5092213;28;19927;-67
2022/02/19 09:35:45;;;;;;;;;;;;;;;2.38;74.99;97956.78;5092331;28;19923;-67
2022/02/19 09:38:13;;;;;;;;;;;;;;;2.37;75.37;97958.59;5091999;28;19919;-72
2022/02/19 09:40:39;;;;;;;;;;;;;;;2.40;75.37;97957.41;5092175;28;19923;-70
2022/02/19 09:43:05;;;;;;;;;;;;;;;2.41;75.50;97944.09;5092199;28;19916;-73
2022/02/19 09:45:30;;;;;;;;;;;;;;;2.45;75.46;97945.38;5074381;28;20393;-70
2022/02/19 09:47:57;;;;;;;;;;;;;;;2.48;75.50;97936.31;5091030;28;20045;-72
2022/02/19 09:50:25;;;;;;;;;;;;;;;2.61;75.37;97938.31;5091155;28;20022;-70
2022/02/19 09:52:50;;;;;;;;;;;;;;;2.53;75.21;97936.56;5092502;28;19995;-70
2022/02/19 09:55:15;;;;;;;;;;;;;;;2.23;76.23;97934.91;5095822;28;19939;-70
2022/02/19 09:57:41;;;;;;;;;;;;;;;2.15;76.71;97917.44;5093500;28;20364;-71
2022/02/19 10:00:07;;;;;;;;;;;;;;;2.01;76.67;97926.06;5092071;28;19961;-69
2022/02/19 10:02:34;;;;;;;;;;;;;;;1.89;77.79;97912.56;5090557;28;19916;-71
2022/02/19 10:05:12;;;;;;;;;;;;;;;1.94;78.38;97910.22;5091832;28;20014;-70
2022/02/19 10:07:38;;;;;;;;;;;;;;;1.93;77.98;97908.59;5091727;28;19920;-70
2022/02/19 10:10:28;;;;;;;;;;;;;;;1.98;78.10;97893.13;5092186;28;19942;-70
2022/02/19 10:12:54;;;;;;;;;;;;;;;2.00;77.83;97891.13;5091863;28;19920;-71
2022/02/19 10:15:19;;;;;;;;;;;;;;;1.89;78.44;97901.25;5092175;28;19934;-71
2022/02/19 10:17:45;;;;;;;;;;;;;;;1.82;78.45;97885.41;5090746;28;20322;-71
2022/02/19 10:20:17;;;;;;;;;;;;;;;1.81;78.57;97889.03;5090630;28;19916;-68
2022/02/19 10:22:45;;;;;;;;;;;;;;;1.80;78.97;97887.41;5092631;28;19916;-69
2022/02/19 10:25:13;;;;;;;;;;;;;;;1.81;78.97;97874.09;5095366;28;19920;-70
2022/02/19 10:28:10;;;;;;;;;;;;;;;1.80;78.70;97874.28;5096182;28;19916;-73
2022/02/19 10:30:36;;;;;;;;;;;;;;;1.80;79.06;97874.28;5096245;28;20375;-69
2022/02/19 10:33:04;;;;;;;;;;;;;;;1.74;78.80;97869.75;5095895;28;19916;-68
2022/02/19 10:35:36;;;;;;;;;;;;;;;1.70;79.31;97865.81;5093906;28;19923;-67
2022/02/19 10:38:05;;;;;;;;;;;;;;;1.62;79.52;97868.53;5106208;28;19942;-67
2022/02/19 10:40:39;;;;;;;;;;;;;;;1.61;79.74;97870.31;5114975;28;19923;-65
2022/02/19 10:43:12;;;;;;;;;;;;;;;1.63;79.39;97852.59;5114795;28;20297;-66
2022/02/19 10:45:51;;;;;;;;;;;;;;;1.62;79.32;97860.66;5114195;28;19923;-63
2022/02/19 10:48:18;;;;;;;;;;;;;;;1.62;79.34;97864.09;5115215;28;19922;-64
2022/02/19 10:50:45;;;;;;;;;;;;;;;1.60;79.40;97850.34;5114531;28;19919;-62
2022/02/19 10:53:18;;;;;;;;;;;;;;;1.57;79.63;97860.38;5096401;28;19926;-64
2022/02/19 10:55:44;;;;;;;;;;;;;;;1.48;79.78;97847.31;5115182;28;20383;-67
2022/02/19 10:58:09;;;;;;;;;;;;;;;1.44;80.07;97845.22;5096742;28;20081;-68
2022/02/19 11:00:35;;;;;;;;;;;;;;;1.45;80.33;97847.69;5112790;28;20310;-67
2022/02/19 11:03:02;;;;;;;;;;;;;;;1.48;80.25;97849.13;5112300;28;19927;-66
2022/02/19 11:05:29;;;;;;;;;;;;;;;1.41;80.67;97846.38;5099965;28;19915;-68
2022/02/19 11:07:54;;;;;;;;;;;;;;;1.48;80.48;97836.84;5096518;28;19954;-64
2022/02/19 11:10:21;;;;;;;;;;;;;;;1.61;80.52;97827.53;5099256;28;20379;-69
2022/02/19 11:12:47;;;;;;;;;;;;;;;1.66;79.91;97830.44;5118554;28;19915;-69
2022/02/19 11:15:15;;;;;;;;;;;;;;;1.70;79.72;97826.47;5100151;28;19920;-67
2022/02/19 11:17:41;;;;;;;;;;;;;;;1.74;79.46;97825.16;5118464;28;20306;-69
2022/02/19 11:20:08;;;;;;;;;;;;;;;1.69;79.47;97823.03;5101862;28;19916;-66
2022/02/19 11:22:34;;;;;;;;;;;;;;;1.67;79.86;97814.53;5094665;28;20407;-65
2022/02/19 11:25:00;;;;;;;;;;;;;;;1.63;80.13;97812.44;5094962;28;19923;-65
2022/02/19 11:27:31;;;;;;;;;;;;;;;1.63;80.52;97809.81;5094701;28;19941;-65
2022/02/19 11:29:59;;;;;;;;;;;;;;;1.70;80.31;97806.28;5094269;28;19916;-67
2022/02/19 11:32:26;;;;;;;;;;;;;;;1.65;79.94;97799.97;5094046;28;19923;-72
2022/02/19 11:34:52;;;;;;;;;;;;;;;1.54;80.87;97804.66;5058678;28;19970;-75
2022/02/19 11:37:20;;;;;;;;;;;;;;;1.58;80.66;97796.44;5072157;28;19955;-74
2022/02/19 11:40:06;;;;;;;;;;;;;;;1.47;80.75;97797.69;5092437;28;20390;-71
2022/02/19 11:42:51;;;;;;;;;;;;;;;1.43;81.59;97791.94;5093779;28;19916;-71
2022/02/19 11:45:17;;;;;;;;;;;;;;;1.37;81.75;97800.53;5093115;28;19923;-72
2022/02/19 11:47:45;;;;;;;;;;;;;;;1.37;81.96;97789.22;5093192;28;19920;-70
2022/02/19 11:50:22;;;;;;;;;;;;;;;1.39;82.16;97774.94;5093250;28;19927;-72
2022/02/19 11:53:07;;;;;;;;;;;;;;;1.40;81.61;97781.81;5076817;28;19966;-74
2022/02/19 11:55:33;;;;;;;;;;;;;;;1.34;81.93;97774.66;5077663;28;19916;-76
2022/02/19 11:58:03;;;;;;;;;;;;;;;1.44;81.78;97767.34;5094517;28;20014;-71
2022/02/19 12:00:47;;;;;;;;;;;;;;;1.46;81.78;97770.63;5059618;28;20349;-72
2022/02/19 12:03:18;;;;;;;;;;;;;;;1.50;82.10;97763.22;5075974;28;19916;-69
2022/02/19 12:06:02;;;;;;;;;;;;;;;1.51;81.82;97757.00;5076175;28;20348;-72
2022/02/19 12:08:34;;;;;;;;;;;;;;;1.54;81.58;97752.19;5076248;28;19974;-69
2022/02/19 12:11:08;;;;;;;;;;;;;;;1.58;81.75;97749.22;5093447;28;20038;-74
2022/02/19 12:13:44;;;;;;;;;;;;;;;1.50;81.69;97750.94;5075887;28;19916;-74
2022/02/19 12:18:59;;;;;;;;;;;;;;;1.50;81.83;97750.13;5093714;28;20382;-72
2022/02/19 12:21:33;;;;;;;;;;;;;;;1.57;81.63;97742.34;5093476;28;19916;-68
2022/02/19 12:24:15;;;;;;;;;;;;;;;1.61;81.64;97740.97;5093714;28;19923;-69
2022/02/19 12:27:07;;;;;;;;;;;;;;;1.53;82.02;97740.06;5093257;28;19920;-68
2022/02/19 12:29:33;;;;;;;;;;;;;;;1.50;82.35;97740.44;5092754;28;19931;-66
2022/02/19 12:32:04;;;;;;;;;;;;;;;1.61;82.04;97733.13;5092398;28;19916;-68
2022/02/19 12:34:30;;;;;;;;;;;;;;;1.72;81.94;97728.22;5092459;28;19916;-67
2022/02/19 12:36:58;;;;;;;;;;;;;;;1.75;81.03;97729.69;5090453;28;19951;-66
2022/02/19 12:39:25;;;;;;;;;;;;;;;1.72;81.36;97727.41;5071236;28;19920;-65
2022/02/19 12:41:57;;;;;;;;;;;;;;;1.75;81.31;97727.88;5072271;28;20375;-66
2022/02/19 12:44:23;;;;;;;;;;;;;;;1.68;81.40;97720.91;5071198;28;19962;-67
2022/02/19 12:46:49;;;;;;;;;;;;;;;1.64;81.70;97730.13;5048054;28;19916;-66
2022/02/19 12:49:17;;;;;;;;;;;;;;;1.63;81.82;97728.50;5049957;28;20003;-67
2022/02/19 12:51:44;;;;;;;;;;;;;;;1.63;81.39;97721.44;5071324;28;19917;-66
2022/02/19 12:54:09;;;;;;;;;;;;;;;1.64;81.50;97722.25;5072995;28;19960;-67
2022/02/19 12:56:39;;;;;;;;;;;;;;;1.69;81.30;97722.53;5072257;28;19967;-68
2022/02/19 12:59:04;;;;;;;;;;;;;;;1.68;81.68;97716.47;5071908;28;19916;-67
2022/02/19 13:01:30;;;;;;;;;;;;;;;1.59;82.04;97704.44;5051826;28;20346;-62
2022/02/19 13:03:55;;;;;;;;;;;;;;;1.63;81.96;97707.50;5071644;28;19931;-67
2022/02/19 13:06:23;;;;;;;;;;;;;;;1.71;81.74;97710.03;5071565;28;19916;-62
2022/02/19 13:08:57;;;;;;;;;;;;;;;1.76;81.52;97702.47;5070209;28;19920;-68
2022/02/19 13:11:23;;;;;;;;;;;;;;;1.76;81.40;97708.53;5032939;28;19967;-63
2022/02/19 13:13:48;;;;;;;;;;;;;;;1.69;81.88;97709.41;5070634;28;19967;-64
2022/02/19 13:16:13;;;;;;;;;;;;;;;1.67;81.48;97706.16;5068982;28;19920;-65
2022/02/19 13:18:40;;;;;;;;;;;;;;;1.63;81.35;97702.25;5070492;28;19916;-72
2022/02/19 13:21:06;;;;;;;;;;;;;;;1.60;81.84;97707.88;5070737;28;20407;-73
2022/02/19 13:23:33;;;;;;;;;;;;;;;1.60;81.72;97697.38;5071811;28;20011;-73
2022/02/19 13:25:59;;;;;;;;;;;;;;;1.64;81.93;97704.72;5072509;28;19939;-71
2022/02/19 13:28:25;;;;;;;;;;;;;;;1.63;82.21;97704.88;5072703;28;19916;-73
2022/02/19 13:30:50;;;;;;;;;;;;;;;1.68;81.96;97697.28;5072927;28;20321;-77
2022/02/19 13:33:16;;;;;;;;;;;;;;;1.74;81.53;97700.03;5051388;28;19923;-73
2022/02/19 13:35:42;;;;;;;;;;;;;;;1.79;81.53;97702.91;5071941;28;20011;-77